sensor_id;sensor_type;location;lat;lon;timestamp;P1;durP1;ratioP1;P2;durP2;ratioP2
20065;SDS011;10193;48.884;9.182;2024-03-23T00:56:03;4.60;;;4.07;;
20065;SDS011;10193;48.884;9.182;2024-03-23T00:58:29;4.65;;;4.03;;
20065;SDS011;10193;48.884;9.182;2024-03-23T01:00:56;6.25;;;3.88;;
20065;SDS011;10193;48.884;9.182;2024-03-23T01:03:22;5.38;;;4.20;;
20065;SDS011;10193;48.884;9.182;2024-03-23T01:05:49;4.28;;;3.70;;
20065;SDS011;10193;48.884;9.182;2024-03-23T01:08:14;4.38;;;3.63;;
20065;SDS011;10193;48.884;9.182;2024-03-23T01:10:42;5.10;;;4.25;;
20065;SDS011;10193;48.884;9.182;2024-03-23T01:13:08;4.95;;;4.07;;
20065;SDS011;10193;48.884;9.182;2024-03-23T01:15:35;4.25;;;3.85;;
20065;SDS011;10193;48.884;9.182;2024-03-23T01:18:00;5.20;;;3.67;;
20065;SDS011;10193;48.884;9.182;2024-03-23T01:20:27;4.38;;;3.53;;
20065;SDS011;10193;48.884;9.182;2024-03-23T01:22:53;3.50;;;3.20;;
20065;SDS011;10193;48.884;9.182;2024-03-23T01:25:19;4.63;;;3.22;;
20065;SDS011;10193;48.884;9.182;2024-03-23T01:27:46;3.85;;;3.33;;
20065;SDS011;10193;48.884;9.182;2024-03-23T01:30:13;3.60;;;3.30;;
20065;SDS011;10193;48.884;9.182;2024-03-23T01:32:39;3.50;;;3.20;;
20065;SDS011;10193;48.884;9.182;2024-03-23T01:35:05;4.05;;;3.65;;
20065;SDS011;10193;48.884;9.182;2024-03-23T01:37:31;4.07;;;3.67;;
20065;SDS011;10193;48.884;9.182;2024-03-23T01:39:58;4.10;;;3.70;;
20065;SDS011;10193;48.884;9.182;2024-03-23T01:42:24;4.68;;;4.13;;
20065;SDS011;10193;48.884;9.182;2024-03-23T01:44:52;5.75;;;4.13;;
20065;SDS011;10193;48.884;9.182;2024-03-23T01:47:17;4.32;;;3.92;;
20065;SDS011;10193;48.884;9.182;2024-03-23T01:49:44;4.90;;;4.10;;
20065;SDS011;10193;48.884;9.182;2024-03-23T01:52:10;4.32;;;3.80;;
20065;SDS011;10193;48.884;9.182;2024-03-23T01:54:36;4.32;;;3.88;;
20065;SDS011;10193;48.884;9.182;2024-03-23T01:57:03;5.80;;;4.03;;
20065;SDS011;10193;48.884;9.182;2024-03-23T01:59:30;3.30;;;3.00;;
20065;SDS011;10193;48.884;9.182;2024-03-23T02:01:57;2.75;;;2.55;;
20065;SDS011;10193;48.884;9.182;2024-03-23T02:04:24;2.28;;;1.95;;
20065;SDS011;10193;48.884;9.182;2024-03-23T02:06:49;2.10;;;1.88;;
20065;SDS011;10193;48.884;9.182;2024-03-23T02:09:16;2.03;;;1.92;;
20065;SDS011;10193;48.884;9.182;2024-03-23T02:11:42;1.92;;;1.73;;
20065;SDS011;10193;48.884;9.182;2024-03-23T02:14:08;1.73;;;1.63;;
20065;SDS011;10193;48.884;9.182;2024-03-23T02:16:34;1.58;;;1.48;;
20065;SDS011;10193;48.884;9.182;2024-03-23T02:19:02;1.50;;;1.40;;
20065;SDS011;10193;48.884;9.182;2024-03-23T02:21:28;1.45;;;1.35;;
20065;SDS011;10193;48.884;9.182;2024-03-23T02:23:58;1.60;;;1.50;;
20065;SDS011;10193;48.884;9.182;2024-03-23T02:26:24;1.60;;;1.50;;
20065;SDS011;10193;48.884;9.182;2024-03-23T02:28:50;1.75;;;1.65;;
20065;SDS011;10193;48.884;9.182;2024-03-23T02:31:16;1.80;;;1.50;;
20065;SDS011;10193;48.884;9.182;2024-03-23T02:33:43;1.58;;;1.48;;
20065;SDS011;10193;48.884;9.182;2024-03-23T02:36:08;1.48;;;1.38;;
20065;SDS011;10193;48.884;9.182;2024-03-23T02:38:35;1.58;;;1.30;;
20065;SDS011;10193;48.884;9.182;2024-03-23T02:41:03;1.50;;;1.40;;
20065;SDS011;10193;48.884;9.182;2024-03-23T02:43:30;1.60;;;1.40;;
20065;SDS011;10193;48.884;9.182;2024-03-23T02:45:56;1.83;;;1.63;;
20065;SDS011;10193;48.884;9.182;2024-03-23T02:48:23;1.83;;;1.52;;
20065;SDS011;10193;48.884;9.182;2024-03-23T02:50:49;1.55;;;1.45;;
20065;SDS011;10193;48.884;9.182;2024-03-23T02:53:16;1.70;;;1.60;;
20065;SDS011;10193;48.884;9.182;2024-03-23T02:55:42;1.58;;;1.48;;
20065;SDS011;10193;48.884;9.182;2024-03-23T02:58:27;1.63;;;1.50;;
20065;SDS011;10193;48.884;9.182;2024-03-23T03:00:52;2.90;;;1.48;;
20065;SDS011;10193;48.884;9.182;2024-03-23T03:03:19;1.65;;;1.55;;
20065;SDS011;10193;48.884;9.182;2024-03-23T03:05:45;1.80;;;1.70;;
20065;SDS011;10193;48.884;9.182;2024-03-23T03:08:11;1.67;;;1.48;;
20065;SDS011;10193;48.884;9.182;2024-03-23T03:10:37;1.65;;;1.55;;
20065;SDS011;10193;48.884;9.182;2024-03-23T03:13:04;1.70;;;1.60;;
20065;SDS011;10193;48.884;9.182;2024-03-23T03:15:31;1.50;;;1.40;;
20065;SDS011;10193;48.884;9.182;2024-03-23T03:17:57;1.60;;;1.50;;
20065;SDS011;10193;48.884;9.182;2024-03-23T03:20:23;1.65;;;1.55;;
20065;SDS011;10193;48.884;9.182;2024-03-23T03:22:50;1.70;;;1.60;;
20065;SDS011;10193;48.884;9.182;2024-03-23T03:25:15;1.70;;;1.60;;
20065;SDS011;10193;48.884;9.182;2024-03-23T03:27:42;1.70;;;1.60;;
20065;SDS011;10193;48.884;9.182;2024-03-23T03:30:08;1.55;;;1.45;;
20065;SDS011;10193;48.884;9.182;2024-03-23T03:32:37;2.20;;;1.80;;
20065;SDS011;10193;48.884;9.182;2024-03-23T03:35:03;1.67;;;1.58;;
20065;SDS011;10193;48.884;9.182;2024-03-23T03:37:30;2.10;;;1.90;;
20065;SDS011;10193;48.884;9.182;2024-03-23T03:39:55;2.13;;;1.92;;
20065;SDS011;10193;48.884;9.182;2024-03-23T03:42:22;2.13;;;2.00;;
20065;SDS011;10193;48.884;9.182;2024-03-23T03:44:48;2.00;;;1.80;;
20065;SDS011;10193;48.884;9.182;2024-03-23T03:47:14;2.03;;;1.90;;
20065;SDS011;10193;48.884;9.182;2024-03-23T03:49:41;2.10;;;2.00;;
20065;SDS011;10193;48.884;9.182;2024-03-23T03:52:08;1.88;;;1.77;;
20065;SDS011;10193;48.884;9.182;2024-03-23T03:54:34;1.90;;;1.80;;
20065;SDS011;10193;48.884;9.182;2024-03-23T03:57:00;2.20;;;2.00;;
20065;SDS011;10193;48.884;9.182;2024-03-23T03:59:27;2.00;;;1.80;;
20065;SDS011;10193;48.884;9.182;2024-03-23T04:01:53;1.70;;;1.60;;
20065;SDS011;10193;48.884;9.182;2024-03-23T04:04:19;2.08;;;1.90;;
20065;SDS011;10193;48.884;9.182;2024-03-23T04:06:48;2.83;;;1.90;;
20065;SDS011;10193;48.884;9.182;2024-03-23T04:09:14;2.10;;;1.90;;
20065;SDS011;10193;48.884;9.182;2024-03-23T04:11:41;1.80;;;1.70;;
20065;SDS011;10193;48.884;9.182;2024-03-23T04:14:06;1.67;;;1.58;;
20065;SDS011;10193;48.884;9.182;2024-03-23T04:16:33;1.98;;;1.73;;
20065;SDS011;10193;48.884;9.182;2024-03-23T04:19:00;2.00;;;1.90;;
20065;SDS011;10193;48.884;9.182;2024-03-23T04:21:27;1.80;;;1.70;;
20065;SDS011;10193;48.884;9.182;2024-03-23T04:23:54;1.92;;;1.83;;
20065;SDS011;10193;48.884;9.182;2024-03-23T04:26:21;2.35;;;1.90;;
20065;SDS011;10193;48.884;9.182;2024-03-23T04:28:47;2.30;;;2.10;;
20065;SDS011;10193;48.884;9.182;2024-03-23T04:31:13;2.55;;;2.35;;
20065;SDS011;10193;48.884;9.182;2024-03-23T04:33:39;2.90;;;2.53;;
20065;SDS011;10193;48.884;9.182;2024-03-23T04:36:06;2.50;;;2.30;;
20065;SDS011;10193;48.884;9.182;2024-03-23T04:38:32;2.83;;;2.63;;
20065;SDS011;10193;48.884;9.182;2024-03-23T04:41:00;3.58;;;3.28;;
20065;SDS011;10193;48.884;9.182;2024-03-23T04:43:27;4.50;;;4.10;;
20065;SDS011;10193;48.884;9.182;2024-03-23T04:45:53;5.00;;;4.50;;
20065;SDS011;10193;48.884;9.182;2024-03-23T04:48:20;5.85;;;5.15;;
20065;SDS011;10193;48.884;9.182;2024-03-23T04:50:48;5.57;;;5.07;;
20065;SDS011;10193;48.884;9.182;2024-03-23T04:53:15;6.40;;;5.70;;
20065;SDS011;10193;48.884;9.182;2024-03-23T04:55:42;6.88;;;6.18;;
20065;SDS011;10193;48.884;9.182;2024-03-23T04:58:10;7.10;;;6.40;;
20065;SDS011;10193;48.884;9.182;2024-03-23T05:00:35;6.80;;;6.13;;
20065;SDS011;10193;48.884;9.182;2024-03-23T05:03:02;6.88;;;6.20;;
20065;SDS011;10193;48.884;9.182;2024-03-23T05:05:29;7.93;;;7.13;;
20065;SDS011;10193;48.884;9.182;2024-03-23T05:07:56;7.72;;;6.93;;
20065;SDS011;10193;48.884;9.182;2024-03-23T05:10:21;7.57;;;6.80;;
20065;SDS011;10193;48.884;9.182;2024-03-23T05:12:48;7.65;;;6.95;;
20065;SDS011;10193;48.884;9.182;2024-03-23T05:15:15;6.97;;;6.28;;
20065;SDS011;10193;48.884;9.182;2024-03-23T05:17:42;6.95;;;6.25;;
20065;SDS011;10193;48.884;9.182;2024-03-23T05:20:09;6.60;;;6.00;;
20065;SDS011;10193;48.884;9.182;2024-03-23T05:22:35;6.70;;;6.00;;
20065;SDS011;10193;48.884;9.182;2024-03-23T05:25:01;7.70;;;6.90;;
20065;SDS011;10193;48.884;9.182;2024-03-23T05:27:29;8.55;;;7.63;;
20065;SDS011;10193;48.884;9.182;2024-03-23T05:29:57;7.95;;;7.25;;
20065;SDS011;10193;48.884;9.182;2024-03-23T05:32:24;8.13;;;7.32;;
20065;SDS011;10193;48.884;9.182;2024-03-23T05:34:51;8.07;;;6.90;;
20065;SDS011;10193;48.884;9.182;2024-03-23T05:37:20;7.13;;;6.40;;
20065;SDS011;10193;48.884;9.182;2024-03-23T05:39:47;8.13;;;7.32;;
20065;SDS011;10193;48.884;9.182;2024-03-23T05:42:14;7.63;;;6.93;;
20065;SDS011;10193;48.884;9.182;2024-03-23T05:44:42;7.47;;;6.78;;
20065;SDS011;10193;48.884;9.182;2024-03-23T05:47:08;6.45;;;5.85;;
20065;SDS011;10193;48.884;9.182;2024-03-23T05:49:37;6.22;;;5.63;;
20065;SDS011;10193;48.884;9.182;2024-03-23T05:52:02;7.25;;;6.00;;
20065;SDS011;10193;48.884;9.182;2024-03-23T05:54:29;5.82;;;5.32;;
20065;SDS011;10193;48.884;9.182;2024-03-23T05:56:55;5.25;;;4.75;;
20065;SDS011;10193;48.884;9.182;2024-03-23T05:59:22;4.90;;;4.35;;
20065;SDS011;10193;48.884;9.182;2024-03-23T06:01:47;4.50;;;4.10;;
20065;SDS011;10193;48.884;9.182;2024-03-23T06:04:14;4.40;;;3.92;;
20065;SDS011;10193;48.884;9.182;2024-03-23T06:06:41;4.20;;;3.80;;
20065;SDS011;10193;48.884;9.182;2024-03-23T06:09:08;4.20;;;3.80;;
20065;SDS011;10193;48.884;9.182;2024-03-23T06:11:34;4.03;;;3.72;;
20065;SDS011;10193;48.884;9.182;2024-03-23T06:14:00;4.45;;;4.05;;
20065;SDS011;10193;48.884;9.182;2024-03-23T06:16:27;5.13;;;4.30;;
20065;SDS011;10193;48.884;9.182;2024-03-23T06:18:53;4.43;;;4.03;;
20065;SDS011;10193;48.884;9.182;2024-03-23T06:21:20;4.30;;;3.90;;
20065;SDS011;10193;48.884;9.182;2024-03-23T06:23:47;4.03;;;3.65;;
20065;SDS011;10193;48.884;9.182;2024-03-23T06:26:16;3.45;;;3.15;;
20065;SDS011;10193;48.884;9.182;2024-03-23T06:28:42;3.78;;;3.45;;
20065;SDS011;10193;48.884;9.182;2024-03-23T06:31:08;3.53;;;3.22;;
20065;SDS011;10193;48.884;9.182;2024-03-23T06:33:35;2.80;;;2.60;;
20065;SDS011;10193;48.884;9.182;2024-03-23T06:36:01;3.00;;;2.80;;
20065;SDS011;10193;48.884;9.182;2024-03-23T06:38:28;2.75;;;2.55;;
20065;SDS011;10193;48.884;9.182;2024-03-23T06:40:56;2.40;;;2.20;;
20065;SDS011;10193;48.884;9.182;2024-03-23T06:43:21;2.10;;;2.00;;
20065;SDS011;10193;48.884;9.182;2024-03-23T06:45:52;2.40;;;2.20;;
20065;SDS011;10193;48.884;9.182;2024-03-23T06:48:18;2.47;;;2.00;;
20065;SDS011;10193;48.884;9.182;2024-03-23T06:50:44;1.65;;;1.55;;
20065;SDS011;10193;48.884;9.182;2024-03-23T06:53:11;2.20;;;1.70;;
20065;SDS011;10193;48.884;9.182;2024-03-23T06:55:38;1.65;;;1.55;;
20065;SDS011;10193;48.884;9.182;2024-03-23T06:58:05;1.02;;;1.02;;
20065;SDS011;10193;48.884;9.182;2024-03-23T07:00:32;1.30;;;1.25;;
20065;SDS011;10193;48.884;9.182;2024-03-23T07:02:57;1.23;;;1.13;;
20065;SDS011;10193;48.884;9.182;2024-03-23T07:05:24;0.60;;;0.60;;
20065;SDS011;10193;48.884;9.182;2024-03-23T07:07:50;0.90;;;0.85;;
20065;SDS011;10193;48.884;9.182;2024-03-23T07:10:17;0.80;;;0.80;;
20065;SDS011;10193;48.884;9.182;2024-03-23T07:12:42;0.70;;;0.70;;
20065;SDS011;10193;48.884;9.182;2024-03-23T07:15:11;0.80;;;0.80;;
20065;SDS011;10193;48.884;9.182;2024-03-23T07:17:36;0.73;;;0.73;;
20065;SDS011;10193;48.884;9.182;2024-03-23T07:20:03;0.60;;;0.60;;
20065;SDS011;10193;48.884;9.182;2024-03-23T07:22:29;0.57;;;0.57;;
20065;SDS011;10193;48.884;9.182;2024-03-23T07:24:56;0.70;;;0.70;;
20065;SDS011;10193;48.884;9.182;2024-03-23T07:27:25;0.70;;;0.70;;
20065;SDS011;10193;48.884;9.182;2024-03-23T07:29:51;0.50;;;0.50;;
20065;SDS011;10193;48.884;9.182;2024-03-23T07:32:18;0.77;;;0.77;;
20065;SDS011;10193;48.884;9.182;2024-03-23T07:34:45;0.52;;;0.52;;
20065;SDS011;10193;48.884;9.182;2024-03-23T07:37:10;0.45;;;0.45;;
20065;SDS011;10193;48.884;9.182;2024-03-23T07:39:37;0.60;;;0.55;;
20065;SDS011;10193;48.884;9.182;2024-03-23T07:42:04;0.68;;;0.65;;
20065;SDS011;10193;48.884;9.182;2024-03-23T07:44:31;0.63;;;0.63;;
20065;SDS011;10193;48.884;9.182;2024-03-23T07:46:58;0.63;;;0.63;;
20065;SDS011;10193;48.884;9.182;2024-03-23T07:49:26;0.70;;;0.70;;
20065;SDS011;10193;48.884;9.182;2024-03-23T07:51:53;0.55;;;0.55;;
20065;SDS011;10193;48.884;9.182;2024-03-23T07:54:19;1.70;;;0.75;;
20065;SDS011;10193;48.884;9.182;2024-03-23T07:56:46;0.70;;;0.70;;
20065;SDS011;10193;48.884;9.182;2024-03-23T07:59:11;0.80;;;0.80;;
20065;SDS011;10193;48.884;9.182;2024-03-23T08:01:38;0.80;;;0.80;;
20065;SDS011;10193;48.884;9.182;2024-03-23T08:04:04;0.77;;;0.77;;
20065;SDS011;10193;48.884;9.182;2024-03-23T08:06:33;1.20;;;0.60;;
20065;SDS011;10193;48.884;9.182;2024-03-23T08:08:58;0.40;;;0.40;;
20065;SDS011;10193;48.884;9.182;2024-03-23T08:11:25;0.40;;;0.40;;
20065;SDS011;10193;48.884;9.182;2024-03-23T08:13:51;0.57;;;0.50;;
20065;SDS011;10193;48.884;9.182;2024-03-23T08:16:18;0.50;;;0.50;;
20065;SDS011;10193;48.884;9.182;2024-03-23T08:18:44;0.63;;;0.63;;
20065;SDS011;10193;48.884;9.182;2024-03-23T08:21:10;0.43;;;0.40;;
20065;SDS011;10193;48.884;9.182;2024-03-23T08:23:37;0.40;;;0.40;;
20065;SDS011;10193;48.884;9.182;2024-03-23T08:26:05;0.40;;;0.40;;
20065;SDS011;10193;48.884;9.182;2024-03-23T08:28:32;0.30;;;0.30;;
20065;SDS011;10193;48.884;9.182;2024-03-23T08:31:00;0.40;;;0.40;;
20065;SDS011;10193;48.884;9.182;2024-03-23T08:33:27;0.25;;;0.25;;
20065;SDS011;10193;48.884;9.182;2024-03-23T08:35:55;0.65;;;0.55;;
20065;SDS011;10193;48.884;9.182;2024-03-23T08:38:21;0.47;;;0.47;;
20065;SDS011;10193;48.884;9.182;2024-03-23T08:40:57;0.75;;;0.40;;
20065;SDS011;10193;48.884;9.182;2024-03-23T08:43:23;1.05;;;0.80;;
20065;SDS011;10193;48.884;9.182;2024-03-23T08:45:50;1.10;;;0.80;;
20065;SDS011;10193;48.884;9.182;2024-03-23T08:48:15;0.85;;;0.80;;
20065;SDS011;10193;48.884;9.182;2024-03-23T08:50:42;0.88;;;0.88;;
20065;SDS011;10193;48.884;9.182;2024-03-23T08:53:08;1.90;;;0.88;;
20065;SDS011;10193;48.884;9.182;2024-03-23T08:55:35;1.63;;;0.93;;
20065;SDS011;10193;48.884;9.182;2024-03-23T08:58:02;1.23;;;1.00;;
20065;SDS011;10193;48.884;9.182;2024-03-23T09:00:29;1.40;;;1.10;;
20065;SDS011;10193;48.884;9.182;2024-03-23T09:02:55;2.42;;;1.00;;
20065;SDS011;10193;48.884;9.182;2024-03-23T09:05:22;1.10;;;1.00;;
20065;SDS011;10193;48.884;9.182;2024-03-23T09:07:49;1.95;;;1.20;;
20065;SDS011;10193;48.884;9.182;2024-03-23T09:10:15;2.58;;;1.10;;
20065;SDS011;10193;48.884;9.182;2024-03-23T09:12:41;2.13;;;1.40;;
20065;SDS011;10193;48.884;9.182;2024-03-23T09:15:09;2.00;;;1.40;;
20065;SDS011;10193;48.884;9.182;2024-03-23T09:17:35;2.92;;;1.70;;
20065;SDS011;10193;48.884;9.182;2024-03-23T09:20:02;2.55;;;1.70;;
20065;SDS011;10193;48.884;9.182;2024-03-23T09:22:29;3.28;;;2.20;;
20065;SDS011;10193;48.884;9.182;2024-03-23T09:24:56;4.50;;;2.53;;
20065;SDS011;10193;48.884;9.182;2024-03-23T09:27:21;2.80;;;2.45;;
20065;SDS011;10193;48.884;9.182;2024-03-23T09:29:48;5.63;;;2.30;;
20065;SDS011;10193;48.884;9.182;2024-03-23T09:32:15;2.70;;;1.95;;
20065;SDS011;10193;48.884;9.182;2024-03-23T09:34:43;3.83;;;2.47;;
20065;SDS011;10193;48.884;9.182;2024-03-23T09:37:08;2.75;;;2.20;;
20065;SDS011;10193;48.884;9.182;2024-03-23T09:39:35;2.85;;;2.17;;
20065;SDS011;10193;48.884;9.182;2024-03-23T09:42:00;2.58;;;2.25;;
20065;SDS011;10193;48.884;9.182;2024-03-23T09:44:27;4.18;;;2.13;;
20065;SDS011;10193;48.884;9.182;2024-03-23T09:46:54;4.13;;;2.30;;
20065;SDS011;10193;48.884;9.182;2024-03-23T09:49:23;4.00;;;2.70;;
20065;SDS011;10193;48.884;9.182;2024-03-23T09:51:49;2.88;;;2.50;;
20065;SDS011;10193;48.884;9.182;2024-03-23T09:54:17;2.67;;;2.47;;
20065;SDS011;10193;48.884;9.182;2024-03-23T09:56:42;4.22;;;2.40;;
20065;SDS011;10193;48.884;9.182;2024-03-23T09:59:09;5.32;;;2.70;;
20065;SDS011;10193;48.884;9.182;2024-03-23T10:01:35;2.78;;;2.15;;
20065;SDS011;10193;48.884;9.182;2024-03-23T10:04:02;3.35;;;2.30;;
20065;SDS011;10193;48.884;9.182;2024-03-23T10:06:30;4.95;;;2.78;;
20065;SDS011;10193;48.884;9.182;2024-03-23T10:08:56;4.57;;;2.33;;
20065;SDS011;10193;48.884;9.182;2024-03-23T10:11:22;3.50;;;2.40;;
20065;SDS011;10193;48.884;9.182;2024-03-23T10:13:50;2.95;;;2.00;;
20065;SDS011;10193;48.884;9.182;2024-03-23T10:16:25;3.40;;;2.05;;
20065;SDS011;10193;48.884;9.182;2024-03-23T10:18:52;4.40;;;2.50;;
20065;SDS011;10193;48.884;9.182;2024-03-23T10:21:18;3.70;;;2.33;;
20065;SDS011;10193;48.884;9.182;2024-03-23T10:23:46;2.65;;;2.08;;
20065;SDS011;10193;48.884;9.182;2024-03-23T10:26:16;3.45;;;2.05;;
20065;SDS011;10193;48.884;9.182;2024-03-23T10:31:33;4.03;;;2.30;;
20065;SDS011;10193;48.884;9.182;2024-03-23T10:34:00;3.55;;;2.13;;
20065;SDS011;10193;48.884;9.182;2024-03-23T10:36:28;3.67;;;2.13;;
20065;SDS011;10193;48.884;9.182;2024-03-23T10:38:57;2.88;;;2.00;;
20065;SDS011;10193;48.884;9.182;2024-03-23T10:41:25;3.85;;;2.30;;
20065;SDS011;10193;48.884;9.182;2024-03-23T10:43:52;3.60;;;2.33;;
20065;SDS011;10193;48.884;9.182;2024-03-23T10:46:21;4.68;;;2.60;;
20065;SDS011;10193;48.884;9.182;2024-03-23T10:48:47;5.15;;;2.42;;
20065;SDS011;10193;48.884;9.182;2024-03-23T10:51:14;5.40;;;2.50;;
20065;SDS011;10193;48.884;9.182;2024-03-23T10:53:43;4.85;;;2.63;;
20065;SDS011;10193;48.884;9.182;2024-03-23T10:56:13;5.30;;;2.70;;
20065;SDS011;10193;48.884;9.182;2024-03-23T10:58:42;4.63;;;2.90;;
20065;SDS011;10193;48.884;9.182;2024-03-23T11:01:11;4.38;;;2.60;;
20065;SDS011;10193;48.884;9.182;2024-03-23T11:03:38;5.47;;;3.08;;
20065;SDS011;10193;48.884;9.182;2024-03-23T11:06:10;4.15;;;2.88;;
20065;SDS011;10193;48.884;9.182;2024-03-23T11:08:57;4.28;;;2.90;;
20065;SDS011;10193;48.884;9.182;2024-03-23T11:11:24;3.85;;;2.95;;
20065;SDS011;10193;48.884;9.182;2024-03-23T11:13:51;3.88;;;2.63;;
20065;SDS011;10193;48.884;9.182;2024-03-23T11:16:21;3.78;;;2.80;;
20065;SDS011;10193;48.884;9.182;2024-03-23T11:18:49;2.72;;;2.30;;
20065;SDS011;10193;48.884;9.182;2024-03-23T11:24:20;2.78;;;2.17;;
20065;SDS011;10193;48.884;9.182;2024-03-23T11:26:48;2.38;;;2.17;;
20065;SDS011;10193;48.884;9.182;2024-03-23T11:29:15;2.30;;;2.08;;
20065;SDS011;10193;48.884;9.182;2024-03-23T11:31:45;2.22;;;2.10;;
20065;SDS011;10193;48.884;9.182;2024-03-23T11:34:12;2.63;;;2.33;;
20065;SDS011;10193;48.884;9.182;2024-03-23T11:36:38;3.97;;;2.28;;
20065;SDS011;10193;48.884;9.182;2024-03-23T11:39:11;2.63;;;2.30;;
20065;SDS011;10193;48.884;9.182;2024-03-23T11:41:44;3.20;;;2.63;;
20065;SDS011;10193;48.884;9.182;2024-03-23T11:44:17;2.83;;;2.30;;
20065;SDS011;10193;48.884;9.182;2024-03-23T11:46:43;3.85;;;2.50;;
20065;SDS011;10193;48.884;9.182;2024-03-23T11:49:19;2.33;;;2.13;;
20065;SDS011;10193;48.884;9.182;2024-03-23T11:51:47;3.08;;;2.10;;
20065;SDS011;10193;48.884;9.182;2024-03-23T11:54:13;2.33;;;2.10;;
20065;SDS011;10193;48.884;9.182;2024-03-23T11:56:39;2.72;;;2.30;;
20065;SDS011;10193;48.884;9.182;2024-03-23T11:59:06;2.53;;;2.03;;
20065;SDS011;10193;48.884;9.182;2024-03-23T12:01:34;1.85;;;1.75;;
20065;SDS011;10193;48.884;9.182;2024-03-23T12:04:00;2.55;;;2.30;;
20065;SDS011;10193;48.884;9.182;2024-03-23T12:06:27;3.08;;;2.00;;
20065;SDS011;10193;48.884;9.182;2024-03-23T12:08:54;2.60;;;2.03;;
20065;SDS011;10193;48.884;9.182;2024-03-23T12:11:31;1.88;;;1.77;;
20065;SDS011;10193;48.884;9.182;2024-03-23T12:13:59;2.65;;;1.58;;
20065;SDS011;10193;48.884;9.182;2024-03-23T12:16:25;3.70;;;1.65;;
20065;SDS011;10193;48.884;9.182;2024-03-23T12:18:54;2.15;;;1.65;;
20065;SDS011;10193;48.884;9.182;2024-03-23T12:21:30;3.08;;;1.58;;
20065;SDS011;10193;48.884;9.182;2024-03-23T12:23:57;2.50;;;1.52;;
20065;SDS011;10193;48.884;9.182;2024-03-23T12:26:23;2.85;;;1.60;;
20065;SDS011;10193;48.884;9.182;2024-03-23T12:28:50;2.80;;;1.50;;
20065;SDS011;10193;48.884;9.182;2024-03-23T12:31:16;4.45;;;1.80;;
20065;SDS011;10193;48.884;9.182;2024-03-23T12:33:42;3.13;;;1.73;;
20065;SDS011;10193;48.884;9.182;2024-03-23T12:36:11;3.22;;;1.85;;
20065;SDS011;10193;48.884;9.182;2024-03-23T12:38:37;2.47;;;1.50;;
20065;SDS011;10193;48.884;9.182;2024-03-23T12:41:03;2.58;;;1.80;;
20065;SDS011;10193;48.884;9.182;2024-03-23T12:43:30;2.70;;;1.70;;
20065;SDS011;10193;48.884;9.182;2024-03-23T12:45:56;3.20;;;1.83;;
20065;SDS011;10193;48.884;9.182;2024-03-23T12:48:22;3.28;;;1.88;;
20065;SDS011;10193;48.884;9.182;2024-03-23T12:50:48;3.30;;;1.92;;
20065;SDS011;10193;48.884;9.182;2024-03-23T12:53:16;2.40;;;1.75;;
20065;SDS011;10193;48.884;9.182;2024-03-23T12:55:42;2.75;;;1.85;;
20065;SDS011;10193;48.884;9.182;2024-03-23T12:58:08;3.78;;;1.92;;
20065;SDS011;10193;48.884;9.182;2024-03-23T13:00:34;2.47;;;1.90;;
20065;SDS011;10193;48.884;9.182;2024-03-23T13:03:01;4.45;;;1.70;;
20065;SDS011;10193;48.884;9.182;2024-03-23T13:05:26;3.95;;;1.88;;
20065;SDS011;10193;48.884;9.182;2024-03-23T13:07:53;3.67;;;1.92;;
20065;SDS011;10193;48.884;9.182;2024-03-23T13:10:20;4.85;;;1.95;;
20065;SDS011;10193;48.884;9.182;2024-03-23T13:12:46;3.58;;;1.83;;
20065;SDS011;10193;48.884;9.182;2024-03-23T13:15:12;2.80;;;1.80;;
20065;SDS011;10193;48.884;9.182;2024-03-23T13:17:41;4.50;;;2.03;;
20065;SDS011;10193;48.884;9.182;2024-03-23T13:20:08;1.80;;;1.30;;
20065;SDS011;10193;48.884;9.182;2024-03-23T13:22:38;2.85;;;2.00;;
20065;SDS011;10193;48.884;9.182;2024-03-23T13:25:04;4.25;;;1.45;;
20065;SDS011;10193;48.884;9.182;2024-03-23T13:27:33;2.67;;;1.83;;
20065;SDS011;10193;48.884;9.182;2024-03-23T13:29:58;2.95;;;1.90;;
20065;SDS011;10193;48.884;9.182;2024-03-23T13:32:25;3.03;;;1.58;;
20065;SDS011;10193;48.884;9.182;2024-03-23T13:34:51;2.35;;;1.67;;
20065;SDS011;10193;48.884;9.182;2024-03-23T13:37:17;2.58;;;1.50;;
20065;SDS011;10193;48.884;9.182;2024-03-23T13:39:43;2.30;;;1.50;;
20065;SDS011;10193;48.884;9.182;2024-03-23T13:42:10;2.83;;;1.85;;
20065;SDS011;10193;48.884;9.182;2024-03-23T13:44:38;2.72;;;1.80;;
20065;SDS011;10193;48.884;9.182;2024-03-23T13:47:05;2.03;;;1.70;;
20065;SDS011;10193;48.884;9.182;2024-03-23T13:49:31;2.60;;;1.60;;
20065;SDS011;10193;48.884;9.182;2024-03-23T13:51:58;1.98;;;1.25;;
20065;SDS011;10193;48.884;9.182;2024-03-23T13:54:24;3.60;;;1.80;;
20065;SDS011;10193;48.884;9.182;2024-03-23T13:56:51;3.80;;;1.42;;
20065;SDS011;10193;48.884;9.182;2024-03-23T13:59:18;3.33;;;1.30;;
20065;SDS011;10193;48.884;9.182;2024-03-23T14:01:46;3.63;;;1.30;;
20065;SDS011;10193;48.884;9.182;2024-03-23T14:04:12;4.22;;;1.27;;
20065;SDS011;10193;48.884;9.182;2024-03-23T14:06:41;3.05;;;1.15;;
20065;SDS011;10193;48.884;9.182;2024-03-23T14:09:07;1.80;;;1.25;;
20065;SDS011;10193;48.884;9.182;2024-03-23T14:11:34;3.47;;;1.30;;
20065;SDS011;10193;48.884;9.182;2024-03-23T14:14:01;2.50;;;1.30;;
20065;SDS011;10193;48.884;9.182;2024-03-23T14:16:28;3.47;;;1.20;;
20065;SDS011;10193;48.884;9.182;2024-03-23T14:18:55;1.48;;;0.93;;
20065;SDS011;10193;48.884;9.182;2024-03-23T14:21:22;1.42;;;0.82;;
20065;SDS011;10193;48.884;9.182;2024-03-23T14:23:47;2.92;;;1.10;;
20065;SDS011;10193;48.884;9.182;2024-03-23T14:26:14;1.15;;;1.05;;
20065;SDS011;10193;48.884;9.182;2024-03-23T14:28:40;2.70;;;1.27;;
20065;SDS011;10193;48.884;9.182;2024-03-23T14:31:06;2.70;;;0.98;;
20065;SDS011;10193;48.884;9.182;2024-03-23T14:33:35;1.02;;;0.85;;
20065;SDS011;10193;48.884;9.182;2024-03-23T14:36:04;1.75;;;0.80;;
20065;SDS011;10193;48.884;9.182;2024-03-23T14:38:30;2.20;;;1.17;;
20065;SDS011;10193;48.884;9.182;2024-03-23T14:40:58;2.05;;;0.95;;
20065;SDS011;10193;48.884;9.182;2024-03-23T14:43:24;0.85;;;0.80;;
20065;SDS011;10193;48.884;9.182;2024-03-23T14:46:09;1.33;;;1.10;;
20065;SDS011;10193;48.884;9.182;2024-03-23T14:48:36;1.45;;;1.10;;
20065;SDS011;10193;48.884;9.182;2024-03-23T14:51:04;1.38;;;0.90;;
20065;SDS011;10193;48.884;9.182;2024-03-23T14:53:31;1.42;;;0.82;;
20065;SDS011;10193;48.884;9.182;2024-03-23T14:55:58;2.65;;;1.10;;
20065;SDS011;10193;48.884;9.182;2024-03-23T14:58:25;1.75;;;0.82;;
20065;SDS011;10193;48.884;9.182;2024-03-23T15:00:51;2.17;;;0.93;;
20065;SDS011;10193;48.884;9.182;2024-03-23T15:03:17;1.65;;;0.88;;
20065;SDS011;10193;48.884;9.182;2024-03-23T15:05:51;1.02;;;0.85;;
20065;SDS011;10193;48.884;9.182;2024-03-23T15:08:19;1.23;;;0.70;;
20065;SDS011;10193;48.884;9.182;2024-03-23T15:10:45;1.83;;;0.80;;
20065;SDS011;10193;48.884;9.182;2024-03-23T15:13:11;1.05;;;0.80;;
20065;SDS011;10193;48.884;9.182;2024-03-23T15:15:38;1.73;;;0.80;;
20065;SDS011;10193;48.884;9.182;2024-03-23T15:18:05;2.38;;;1.15;;
20065;SDS011;10193;48.884;9.182;2024-03-23T15:20:32;1.40;;;0.95;;
20065;SDS011;10193;48.884;9.182;2024-03-23T15:23:00;1.70;;;1.02;;
20065;SDS011;10193;48.884;9.182;2024-03-23T15:25:28;1.45;;;0.90;;
20065;SDS011;10193;48.884;9.182;2024-03-23T15:27:54;1.63;;;0.73;;
20065;SDS011;10193;48.884;9.182;2024-03-23T15:30:21;1.38;;;0.65;;
20065;SDS011;10193;48.884;9.182;2024-03-23T15:32:46;1.77;;;0.65;;
20065;SDS011;10193;48.884;9.182;2024-03-23T15:35:13;1.13;;;0.70;;
20065;SDS011;10193;48.884;9.182;2024-03-23T15:37:39;1.33;;;0.75;;
20065;SDS011;10193;48.884;9.182;2024-03-23T15:40:06;1.23;;;0.90;;
20065;SDS011;10193;48.884;9.182;2024-03-23T15:42:36;1.50;;;0.60;;
20065;SDS011;10193;48.884;9.182;2024-03-23T15:45:05;0.73;;;0.68;;
20065;SDS011;10193;48.884;9.182;2024-03-23T15:47:32;1.10;;;0.70;;